sensor_id;sensor_type;location;lat;lon;timestamp;temperature;humidity
22813;DHT22;11573;51.334;3.244;2024-01-07T00:00:09;4.40;99.90
22813;DHT22;11573;51.334;3.244;2024-01-07T00:02:36;4.30;99.90
22813;DHT22;11573;51.334;3.244;2024-01-07T00:05:04;4.40;99.90
22813;DHT22;11573;51.334;3.244;2024-01-07T00:07:31;4.40;99.90
22813;DHT22;11573;51.334;3.244;2024-01-07T00:09:58;4.50;99.90
22813;DHT22;11573;51.334;3.244;2024-01-07T00:12:25;4.60;99.90
22813;DHT22;11573;51.334;3.244;2024-01-07T00:14:52;4.60;99.90
22813;DHT22;11573;51.334;3.244;2024-01-07T00:17:19;4.60;99.90
22813;DHT22;11573;51.334;3.244;2024-01-07T00:19:46;4.60;99.90
22813;DHT22;11573;51.334;3.244;2024-01-07T00:22:13;4.60;99.90
22813;DHT22;11573;51.334;3.244;2024-01-07T00:24:40;4.60;99.90
22813;DHT22;11573;51.334;3.244;2024-01-07T00:27:07;4.60;99.90
22813;DHT22;11573;51.334;3.244;2024-01-07T00:29:35;4.70;99.90
22813;DHT22;11573;51.334;3.244;2024-01-07T00:32:02;4.80;99.90
22813;DHT22;11573;51.334;3.244;2024-01-07T00:34:29;4.80;99.90
22813;DHT22;11573;51.334;3.244;2024-01-07T00:36:57;4.80;99.90
22813;DHT22;11573;51.334;3.244;2024-01-07T00:39:24;4.80;99.90
22813;DHT22;11573;51.334;3.244;2024-01-07T00:41:51;4.80;99.90
22813;DHT22;11573;51.334;3.244;2024-01-07T00:44:18;4.70;99.90
22813;DHT22;11573;51.334;3.244;2024-01-07T00:46:45;4.70;99.90
22813;DHT22;11573;51.334;3.244;2024-01-07T00:49:15;4.70;99.90
22813;DHT22;11573;51.334;3.244;2024-01-07T00:51:42;4.70;99.90
22813;DHT22;11573;51.334;3.244;2024-01-07T00:54:09;4.70;99.90
22813;DHT22;11573;51.334;3.244;2024-01-07T00:56:36;4.70;99.90
22813;DHT22;11573;51.334;3.244;2024-01-07T00:59:03;4.80;99.90
22813;DHT22;11573;51.334;3.244;2024-01-07T01:01:31;4.80;99.90
22813;DHT22;11573;51.334;3.244;2024-01-07T01:03:58;4.70;99.90
22813;DHT22;11573;51.334;3.244;2024-01-07T01:06:25;4.70;99.90
22813;DHT22;11573;51.334;3.244;2024-01-07T01:08:52;4.70;99.90
22813;DHT22;11573;51.334;3.244;2024-01-07T01:11:19;4.60;99.90
22813;DHT22;11573;51.334;3.244;2024-01-07T01:13:47;4.60;99.90
22813;DHT22;11573;51.334;3.244;2024-01-07T01:16:14;4.60;99.90
22813;DHT22;11573;51.334;3.244;2024-01-07T01:18:41;4.50;99.90
22813;DHT22;11573;51.334;3.244;2024-01-07T01:21:09;4.50;99.90
22813;DHT22;11573;51.334;3.244;2024-01-07T01:23:36;4.40;99.90
22813;DHT22;11573;51.334;3.244;2024-01-07T01:26:03;4.40;99.90
22813;DHT22;11573;51.334;3.244;2024-01-07T01:28:30;4.40;99.90
22813;DHT22;11573;51.334;3.244;2024-01-07T01:30:57;4.40;99.90
22813;DHT22;11573;51.334;3.244;2024-01-07T01:33:24;4.30;99.90
22813;DHT22;11573;51.334;3.244;2024-01-07T01:35:51;4.30;99.90
22813;DHT22;11573;51.334;3.244;2024-01-07T01:38:18;4.30;99.90
22813;DHT22;11573;51.334;3.244;2024-01-07T01:40:54;4.30;99.90
22813;DHT22;11573;51.334;3.244;2024-01-07T01:43:28;4.20;99.90
22813;DHT22;11573;51.334;3.244;2024-01-07T01:45:56;4.20;99.90
22813;DHT22;11573;51.334;3.244;2024-01-07T01:48:25;4.20;99.90
22813;DHT22;11573;51.334;3.244;2024-01-07T01:50:53;4.20;99.90
22813;DHT22;11573;51.334;3.244;2024-01-07T01:53:22;4.30;99.90
22813;DHT22;11573;51.334;3.244;2024-01-07T01:55:49;4.30;99.90
22813;DHT22;11573;51.334;3.244;2024-01-07T01:58:18;4.30;99.90
22813;DHT22;11573;51.334;3.244;2024-01-07T02:00:45;4.30;99.90
22813;DHT22;11573;51.334;3.244;2024-01-07T02:03:12;4.30;99.90
22813;DHT22;11573;51.334;3.244;2024-01-07T02:05:40;4.30;99.90
22813;DHT22;11573;51.334;3.244;2024-01-07T02:08:07;4.40;99.90
22813;DHT22;11573;51.334;3.244;2024-01-07T02:10:35;4.40;99.90
22813;DHT22;11573;51.334;3.244;2024-01-07T02:13:06;4.50;99.90
22813;DHT22;11573;51.334;3.244;2024-01-07T02:15:33;4.40;99.90
22813;DHT22;11573;51.334;3.244;2024-01-07T02:18:01;4.40;99.90
22813;DHT22;11573;51.334;3.244;2024-01-07T02:20:28;4.40;99.90
22813;DHT22;11573;51.334;3.244;2024-01-07T02:22:55;4.30;99.90
22813;DHT22;11573;51.334;3.244;2024-01-07T02:25:25;4.40;99.90
22813;DHT22;11573;51.334;3.244;2024-01-07T02:27:52;4.40;99.90
22813;DHT22;11573;51.334;3.244;2024-01-07T02:30:20;4.40;99.90
22813;DHT22;11573;51.334;3.244;2024-01-07T02:32:47;4.40;99.90
22813;DHT22;11573;51.334;3.244;2024-01-07T02:35:14;4.40;99.90
22813;DHT22;11573;51.334;3.244;2024-01-07T02:37:41;4.40;99.90
22813;DHT22;11573;51.334;3.244;2024-01-07T02:40:09;4.40;99.90
22813;DHT22;11573;51.334;3.244;2024-01-07T02:42:36;4.30;99.90
22813;DHT22;11573;51.334;3.244;2024-01-07T02:45:03;4.30;99.90
22813;DHT22;11573;51.334;3.244;2024-01-07T02:47:30;4.40;99.90
22813;DHT22;11573;51.334;3.244;2024-01-07T02:49:57;4.40;99.90
22813;DHT22;11573;51.334;3.244;2024-01-07T02:52:24;4.40;99.90
22813;DHT22;11573;51.334;3.244;2024-01-07T02:54:51;4.50;99.90
22813;DHT22;11573;51.334;3.244;2024-01-07T02:57:18;4.50;99.90
22813;DHT22;11573;51.334;3.244;2024-01-07T02:59:45;4.50;99.90
22813;DHT22;11573;51.334;3.244;2024-01-07T03:02:13;4.40;99.90
22813;DHT22;11573;51.334;3.244;2024-01-07T03:04:40;4.40;99.90
22813;DHT22;11573;51.334;3.244;2024-01-07T03:07:07;4.40;99.90
22813;DHT22;11573;51.334;3.244;2024-01-07T03:09:34;4.40;99.90
22813;DHT22;11573;51.334;3.244;2024-01-07T03:12:01;4.40;99.90
22813;DHT22;11573;51.334;3.244;2024-01-07T03:14:27;4.40;99.90
22813;DHT22;11573;51.334;3.244;2024-01-07T03:16:54;4.40;99.90
22813;DHT22;11573;51.334;3.244;2024-01-07T03:19:21;4.40;99.90
22813;DHT22;11573;51.334;3.244;2024-01-07T03:21:50;4.40;99.90
22813;DHT22;11573;51.334;3.244;2024-01-07T03:24:17;4.40;99.90
22813;DHT22;11573;51.334;3.244;2024-01-07T03:26:44;4.30;99.90
22813;DHT22;11573;51.334;3.244;2024-01-07T03:29:11;4.30;99.90
22813;DHT22;11573;51.334;3.244;2024-01-07T03:31:38;4.40;99.90
22813;DHT22;11573;51.334;3.244;2024-01-07T03:34:05;4.30;99.90
22813;DHT22;11573;51.334;3.244;2024-01-07T03:36:32;4.40;99.90
22813;DHT22;11573;51.334;3.244;2024-01-07T03:38:59;4.40;99.90
22813;DHT22;11573;51.334;3.244;2024-01-07T03:41:27;4.50;99.90
22813;DHT22;11573;51.334;3.244;2024-01-07T03:43:53;4.40;99.90
22813;DHT22;11573;51.334;3.244;2024-01-07T03:46:21;4.40;99.90
22813;DHT22;11573;51.334;3.244;2024-01-07T03:48:48;4.50;99.90
22813;DHT22;11573;51.334;3.244;2024-01-07T03:51:15;4.50;99.90
22813;DHT22;11573;51.334;3.244;2024-01-07T03:53:42;4.50;99.90
22813;DHT22;11573;51.334;3.244;2024-01-07T03:56:09;4.50;99.90
22813;DHT22;11573;51.334;3.244;2024-01-07T03:58:36;4.50;99.90
22813;DHT22;11573;51.334;3.244;2024-01-07T04:01:03;4.50;99.90
22813;DHT22;11573;51.334;3.244;2024-01-07T04:03:31;4.40;99.90
22813;DHT22;11573;51.334;3.244;2024-01-07T04:05:58;4.50;99.90
22813;DHT22;11573;51.334;3.244;2024-01-07T04:08:25;4.50;99.90
22813;DHT22;11573;51.334;3.244;2024-01-07T04:10:52;4.40;99.90
22813;DHT22;11573;51.334;3.244;2024-01-07T04:13:19;4.40;99.90
22813;DHT22;11573;51.334;3.244;2024-01-07T04:15:47;4.40;99.90
22813;DHT22;11573;51.334;3.244;2024-01-07T04:18:14;4.30;99.90
22813;DHT22;11573;51.334;3.244;2024-01-07T04:20:41;4.20;99.90
22813;DHT22;11573;51.334;3.244;2024-01-07T04:23:08;4.20;99.90
22813;DHT22;11573;51.334;3.244;2024-01-07T04:25:35;4.00;99.90
22813;DHT22;11573;51.334;3.244;2024-01-07T04:28:02;4.00;99.90
22813;DHT22;11573;51.334;3.244;2024-01-07T04:30:29;3.90;99.90
22813;DHT22;11573;51.334;3.244;2024-01-07T04:32:56;3.80;99.90
22813;DHT22;11573;51.334;3.244;2024-01-07T04:35:23;3.80;99.90
22813;DHT22;11573;51.334;3.244;2024-01-07T04:37:50;3.70;99.90
22813;DHT22;11573;51.334;3.244;2024-01-07T04:40:17;3.70;99.90
22813;DHT22;11573;51.334;3.244;2024-01-07T04:42:44;3.80;99.90
22813;DHT22;11573;51.334;3.244;2024-01-07T04:45:11;3.70;99.90
22813;DHT22;11573;51.334;3.244;2024-01-07T04:47:38;3.70;99.90
22813;DHT22;11573;51.334;3.244;2024-01-07T04:50:06;3.70;99.90
22813;DHT22;11573;51.334;3.244;2024-01-07T04:52:33;3.60;99.90
22813;DHT22;11573;51.334;3.244;2024-01-07T04:55:00;3.60;99.90
22813;DHT22;11573;51.334;3.244;2024-01-07T04:57:27;3.60;99.90
22813;DHT22;11573;51.334;3.244;2024-01-07T04:59:54;3.60;99.90
22813;DHT22;11573;51.334;3.244;2024-01-07T05:02:21;3.50;99.90
22813;DHT22;11573;51.334;3.244;2024-01-07T05:04:48;3.60;99.90
22813;DHT22;11573;51.334;3.244;2024-01-07T05:07:15;3.50;99.90
22813;DHT22;11573;51.334;3.244;2024-01-07T05:09:42;3.60;99.90
22813;DHT22;11573;51.334;3.244;2024-01-07T05:12:10;3.60;99.90
22813;DHT22;11573;51.334;3.244;2024-01-07T05:14:37;3.50;99.90
22813;DHT22;11573;51.334;3.244;2024-01-07T05:17:04;3.60;99.90
22813;DHT22;11573;51.334;3.244;2024-01-07T05:19:31;3.60;99.90
22813;DHT22;11573;51.334;3.244;2024-01-07T05:21:59;3.60;99.90
22813;DHT22;11573;51.334;3.244;2024-01-07T05:24:26;3.50;99.90
22813;DHT22;11573;51.334;3.244;2024-01-07T05:26:53;3.50;99.90
22813;DHT22;11573;51.334;3.244;2024-01-07T05:29:20;3.50;99.90
22813;DHT22;11573;51.334;3.244;2024-01-07T05:31:47;3.50;99.90
22813;DHT22;11573;51.334;3.244;2024-01-07T05:34:14;3.50;99.90
22813;DHT22;11573;51.334;3.244;2024-01-07T05:36:42;3.40;99.90
22813;DHT22;11573;51.334;3.244;2024-01-07T05:39:09;3.40;99.90
22813;DHT22;11573;51.334;3.244;2024-01-07T05:41:37;3.40;99.90
22813;DHT22;11573;51.334;3.244;2024-01-07T05:44:07;3.40;99.90
22813;DHT22;11573;51.334;3.244;2024-01-07T05:46:38;3.40;99.90
22813;DHT22;11573;51.334;3.244;2024-01-07T05:49:06;3.40;99.90
22813;DHT22;11573;51.334;3.244;2024-01-07T05:51:33;3.40;99.90
22813;DHT22;11573;51.334;3.244;2024-01-07T05:54:00;3.40;99.90
22813;DHT22;11573;51.334;3.244;2024-01-07T05:56:27;3.40;99.90
22813;DHT22;11573;51.334;3.244;2024-01-07T05:58:55;3.50;99.90
22813;DHT22;11573;51.334;3.244;2024-01-07T06:01:22;3.40;99.90
22813;DHT22;11573;51.334;3.244;2024-01-07T06:03:49;3.40;99.90
22813;DHT22;11573;51.334;3.244;2024-01-07T06:06:16;3.40;99.90
22813;DHT22;11573;51.334;3.244;2024-01-07T06:08:44;3.40;99.90
22813;DHT22;11573;51.334;3.244;2024-01-07T06:11:11;3.30;99.90
22813;DHT22;11573;51.334;3.244;2024-01-07T06:13:38;3.30;99.90
22813;DHT22;11573;51.334;3.244;2024-01-07T06:16:06;3.40;99.90
22813;DHT22;11573;51.334;3.244;2024-01-07T06:18:33;3.40;99.90
22813;DHT22;11573;51.334;3.244;2024-01-07T06:21:04;3.40;99.90
22813;DHT22;11573;51.334;3.244;2024-01-07T06:23:34;3.40;99.90
22813;DHT22;11573;51.334;3.244;2024-01-07T06:26:05;3.40;99.90
22813;DHT22;11573;51.334;3.244;2024-01-07T06:28:32;3.50;99.90
22813;DHT22;11573;51.334;3.244;2024-01-07T06:31:02;3.40;99.90
22813;DHT22;11573;51.334;3.244;2024-01-07T06:33:30;3.40;99.90
22813;DHT22;11573;51.334;3.244;2024-01-07T06:35:57;3.30;99.90
22813;DHT22;11573;51.334;3.244;2024-01-07T06:38:24;3.30;99.90
22813;DHT22;11573;51.334;3.244;2024-01-07T06:40:51;3.40;99.90
22813;DHT22;11573;51.334;3.244;2024-01-07T06:43:22;3.40;99.90
22813;DHT22;11573;51.334;3.244;2024-01-07T06:45:49;3.40;99.90
22813;DHT22;11573;51.334;3.244;2024-01-07T06:48:16;3.40;99.90
22813;DHT22;11573;51.334;3.244;2024-01-07T06:50:43;3.50;99.90
22813;DHT22;11573;51.334;3.244;2024-01-07T06:53:10;3.40;99.90
22813;DHT22;11573;51.334;3.244;2024-01-07T06:55:37;3.40;99.90
22813;DHT22;11573;51.334;3.244;2024-01-07T06:58:04;3.40;99.90
22813;DHT22;11573;51.334;3.244;2024-01-07T07:00:31;3.40;99.90
22813;DHT22;11573;51.334;3.244;2024-01-07T07:02:59;3.40;99.90
22813;DHT22;11573;51.334;3.244;2024-01-07T07:05:26;3.40;99.90
22813;DHT22;11573;51.334;3.244;2024-01-07T07:07:53;3.40;99.90
22813;DHT22;11573;51.334;3.244;2024-01-07T07:10:21;3.50;99.90
22813;DHT22;11573;51.334;3.244;2024-01-07T07:12:48;3.50;99.90
22813;DHT22;11573;51.334;3.244;2024-01-07T07:15:18;3.50;99.90
22813;DHT22;11573;51.334;3.244;2024-01-07T07:17:45;3.40;99.90
22813;DHT22;11573;51.334;3.244;2024-01-07T07:20:12;3.40;99.90
22813;DHT22;11573;51.334;3.244;2024-01-07T07:22:39;3.40;99.90
22813;DHT22;11573;51.334;3.244;2024-01-07T07:25:06;3.40;99.90
22813;DHT22;11573;51.334;3.244;2024-01-07T07:27:34;3.40;99.90
22813;DHT22;11573;51.334;3.244;2024-01-07T07:30:00;3.40;99.90
22813;DHT22;11573;51.334;3.244;2024-01-07T07:32:28;3.40;99.90
22813;DHT22;11573;51.334;3.244;2024-01-07T07:34:55;3.50;99.90
22813;DHT22;11573;51.334;3.244;2024-01-07T07:37:22;3.40;99.90
22813;DHT22;11573;51.334;3.244;2024-01-07T07:39:49;3.40;99.90
22813;DHT22;11573;51.334;3.244;2024-01-07T07:42:18;3.40;99.90
22813;DHT22;11573;51.334;3.244;2024-01-07T07:44:45;3.40;99.90
22813;DHT22;11573;51.334;3.244;2024-01-07T07:47:12;3.30;99.90
22813;DHT22;11573;51.334;3.244;2024-01-07T07:49:39;3.30;99.90
22813;DHT22;11573;51.334;3.244;2024-01-07T07:52:08;3.40;99.90
22813;DHT22;11573;51.334;3.244;2024-01-07T07:54:39;3.40;99.90
22813;DHT22;11573;51.334;3.244;2024-01-07T07:57:06;3.40;99.90
22813;DHT22;11573;51.334;3.244;2024-01-07T07:59:33;3.40;99.90
22813;DHT22;11573;51.334;3.244;2024-01-07T08:02:00;3.40;99.90
22813;DHT22;11573;51.334;3.244;2024-01-07T08:04:27;3.40;99.90
22813;DHT22;11573;51.334;3.244;2024-01-07T08:06:54;3.40;99.90
22813;DHT22;11573;51.334;3.244;2024-01-07T08:09:23;3.40;99.90
22813;DHT22;11573;51.334;3.244;2024-01-07T08:11:52;3.40;99.90
22813;DHT22;11573;51.334;3.244;2024-01-07T08:14:19;3.30;99.90
22813;DHT22;11573;51.334;3.244;2024-01-07T08:16:46;3.30;99.90
22813;DHT22;11573;51.334;3.244;2024-01-07T08:19:13;3.30;99.90
22813;DHT22;11573;51.334;3.244;2024-01-07T08:21:40;3.30;99.90
22813;DHT22;11573;51.334;3.244;2024-01-07T08:24:07;3.30;99.90
22813;DHT22;11573;51.334;3.244;2024-01-07T08:26:37;3.30;99.90
22813;DHT22;11573;51.334;3.244;2024-01-07T08:29:04;3.40;99.90
22813;DHT22;11573;51.334;3.244;2024-01-07T08:31:31;3.40;99.90
22813;DHT22;11573;51.334;3.244;2024-01-07T08:33:59;3.40;99.90
22813;DHT22;11573;51.334;3.244;2024-01-07T08:36:27;3.40;99.90
22813;DHT22;11573;51.334;3.244;2024-01-07T08:38:54;3.40;99.90
22813;DHT22;11573;51.334;3.244;2024-01-07T08:41:21;3.40;99.90
22813;DHT22;11573;51.334;3.244;2024-01-07T08:43:48;3.30;99.90
22813;DHT22;11573;51.334;3.244;2024-01-07T08:46:15;3.40;99.90
22813;DHT22;11573;51.334;3.244;2024-01-07T08:48:42;3.30;99.90
22813;DHT22;11573;51.334;3.244;2024-01-07T08:51:09;3.30;99.90
22813;DHT22;11573;51.334;3.244;2024-01-07T08:53:36;3.30;99.90
22813;DHT22;11573;51.334;3.244;2024-01-07T08:56:03;3.40;99.90
22813;DHT22;11573;51.334;3.244;2024-01-07T08:58:30;3.40;99.90
22813;DHT22;11573;51.334;3.244;2024-01-07T09:00:57;3.40;99.90
22813;DHT22;11573;51.334;3.244;2024-01-07T09:03:24;3.50;99.90
22813;DHT22;11573;51.334;3.244;2024-01-07T09:05:52;3.50;99.90
22813;DHT22;11573;51.334;3.244;2024-01-07T09:08:19;3.50;99.90
22813;DHT22;11573;51.334;3.244;2024-01-07T09:10:45;3.50;99.90
22813;DHT22;11573;51.334;3.244;2024-01-07T09:13:12;3.50;99.90
22813;DHT22;11573;51.334;3.244;2024-01-07T09:15:40;3.40;99.90
22813;DHT22;11573;51.334;3.244;2024-01-07T09:18:07;3.40;99.90
22813;DHT22;11573;51.334;3.244;2024-01-07T09:20:34;3.50;99.90
22813;DHT22;11573;51.334;3.244;2024-01-07T09:23:01;3.50;99.90
22813;DHT22;11573;51.334;3.244;2024-01-07T09:25:28;3.50;99.90
22813;DHT22;11573;51.334;3.244;2024-01-07T09:27:56;3.50;99.90
22813;DHT22;11573;51.334;3.244;2024-01-07T09:30:23;3.60;99.90
22813;DHT22;11573;51.334;3.244;2024-01-07T09:32:50;3.60;99.90
22813;DHT22;11573;51.334;3.244;2024-01-07T09:35:17;3.60;99.90
22813;DHT22;11573;51.334;3.244;2024-01-07T09:37:44;3.70;99.90
22813;DHT22;11573;51.334;3.244;2024-01-07T09:40:12;3.70;99.90
22813;DHT22;11573;51.334;3.244;2024-01-07T09:42:39;3.70;99.90
22813;DHT22;11573;51.334;3.244;2024-01-07T09:45:07;3.70;99.90
22813;DHT22;11573;51.334;3.244;2024-01-07T09:47:35;3.70;99.90
22813;DHT22;11573;51.334;3.244;2024-01-07T09:50:03;3.70;99.90
22813;DHT22;11573;51.334;3.244;2024-01-07T09:52:30;3.70;99.90
22813;DHT22;11573;51.334;3.244;2024-01-07T09:55:02;3.80;99.90
22813;DHT22;11573;51.334;3.244;2024-01-07T09:57:30;3.80;99.90
22813;DHT22;11573;51.334;3.244;2024-01-07T09:59:58;3.80;99.90
22813;DHT22;11573;51.334;3.244;2024-01-07T10:02:26;3.90;99.90
22813;DHT22;11573;51.334;3.244;2024-01-07T10:04:53;3.90;99.90
22813;DHT22;11573;51.334;3.244;2024-01-07T10:07:20;3.80;99.90
22813;DHT22;11573;51.334;3.244;2024-01-07T10:09:47;3.70;99.90
22813;DHT22;11573;51.334;3.244;2024-01-07T10:12:14;3.80;99.90
22813;DHT22;11573;51.334;3.244;2024-01-07T10:14:42;3.70;99.90
22813;DHT22;11573;51.334;3.244;2024-01-07T10:17:17;3.70;99.90
22813;DHT22;11573;51.334;3.244;2024-01-07T10:19:45;3.70;99.90
22813;DHT22;11573;51.334;3.244;2024-01-07T10:22:15;3.70;99.90
22813;DHT22;11573;51.334;3.244;2024-01-07T10:24:43;3.70;99.90
22813;DHT22;11573;51.334;3.244;2024-01-07T10:27:10;3.70;99.90
22813;DHT22;11573;51.334;3.244;2024-01-07T10:29:37;3.70;99.90
22813;DHT22;11573;51.334;3.244;2024-01-07T10:32:05;3.60;99.90
22813;DHT22;11573;51.334;3.244;2024-01-07T10:34:34;3.70;99.90
22813;DHT22;11573;51.334;3.244;2024-01-07T10:37:04;3.60;99.90
22813;DHT22;11573;51.334;3.244;2024-01-07T10:39:32;3.60;99.90
22813;DHT22;11573;51.334;3.244;2024-01-07T10:42:00;3.70;99.90
22813;DHT22;11573;51.334;3.244;2024-01-07T10:44:29;3.70;99.90
22813;DHT22;11573;51.334;3.244;2024-01-07T10:46:57;3.70;99.90
22813;DHT22;11573;51.334;3.244;2024-01-07T10:49:27;3.60;99.90
22813;DHT22;11573;51.334;3.244;2024-01-07T10:52:06;3.60;99.90
22813;DHT22;11573;51.334;3.244;2024-01-07T10:54:35;3.60;99.90
22813;DHT22;11573;51.334;3.244;2024-01-07T10:57:39;3.60;99.90
22813;DHT22;11573;51.334;3.244;2024-01-07T11:00:10;3.70;99.90
22813;DHT22;11573;51.334;3.244;2024-01-07T11:03:09;3.70;99.90
22813;DHT22;11573;51.334;3.244;2024-01-07T11:11:13;3.70;99.90
22813;DHT22;11573;51.334;3.244;2024-01-07T11:13:41;3.70;99.90
22813;DHT22;11573;51.334;3.244;2024-01-07T11:16:09;3.70;99.90
22813;DHT22;11573;51.334;3.244;2024-01-07T11:18:40;3.70;99.90
22813;DHT22;11573;51.334;3.244;2024-01-07T11:21:23;3.80;99.90
22813;DHT22;11573;51.334;3.244;2024-01-07T11:23:52;3.80;99.90
22813;DHT22;11573;51.334;3.244;2024-01-07T11:26:20;3.80;99.90
22813;DHT22;11573;51.334;3.244;2024-01-07T11:28:56;3.80;99.90
22813;DHT22;11573;51.334;3.244;2024-01-07T11:34:06;3.60;99.90
22813;DHT22;11573;51.334;3.244;2024-01-07T11:36:37;3.60;99.90
22813;DHT22;11573;51.334;3.244;2024-01-07T11:39:05;3.60;99.90
22813;DHT22;11573;51.334;3.244;2024-01-07T11:41:37;3.50;99.90
22813;DHT22;11573;51.334;3.244;2024-01-07T11:44:05;3.40;99.90
22813;DHT22;11573;51.334;3.244;2024-01-07T11:46:33;3.40;99.90
22813;DHT22;11573;51.334;3.244;2024-01-07T11:49:02;3.30;99.90
22813;DHT22;11573;51.334;3.244;2024-01-07T11:51:31;3.20;99.90
22813;DHT22;11573;51.334;3.244;2024-01-07T11:54:00;3.20;99.90
22813;DHT22;11573;51.334;3.244;2024-01-07T11:56:29;3.20;99.90
22813;DHT22;11573;51.334;3.244;2024-01-07T11:58:56;3.10;99.90
22813;DHT22;11573;51.334;3.244;2024-01-07T12:01:24;3.10;99.90
22813;DHT22;11573;51.334;3.244;2024-01-07T12:03:53;3.10;99.90
22813;DHT22;11573;51.334;3.244;2024-01-07T12:06:20;3.20;99.90
22813;DHT22;11573;51.334;3.244;2024-01-07T12:08:48;3.20;99.90
22813;DHT22;11573;51.334;3.244;2024-01-07T12:11:16;3.20;99.90
22813;DHT22;11573;51.334;3.244;2024-01-07T12:13:43;3.20;99.90
22813;DHT22;11573;51.334;3.244;2024-01-07T12:16:11;3.30;99.90
22813;DHT22;11573;51.334;3.244;2024-01-07T12:18:42;3.30;99.90
22813;DHT22;11573;51.334;3.244;2024-01-07T12:21:09;3.20;99.90
22813;DHT22;11573;51.334;3.244;2024-01-07T12:23:37;3.20;99.90
22813;DHT22;11573;51.334;3.244;2024-01-07T12:26:12;3.20;99.90
22813;DHT22;11573;51.334;3.244;2024-01-07T12:28:39;3.30;99.90
22813;DHT22;11573;51.334;3.244;2024-01-07T12:31:06;3.30;99.90
22813;DHT22;11573;51.334;3.244;2024-01-07T12:33:37;3.20;99.90
22813;DHT22;11573;51.334;3.244;2024-01-07T12:36:06;3.20;99.90
22813;DHT22;11573;51.334;3.244;2024-01-07T12:38:36;3.20;99.90
22813;DHT22;11573;51.334;3.244;2024-01-07T12:41:05;3.10;99.90
22813;DHT22;11573;51.334;3.244;2024-01-07T12:43:32;3.10;99.90
22813;DHT22;11573;51.334;3.244;2024-01-07T12:45:59;3.10;99.90
22813;DHT22;11573;51.334;3.244;2024-01-07T12:48:32;3.20;99.90
22813;DHT22;11573;51.334;3.244;2024-01-07T12:51:00;3.20;99.90
22813;DHT22;11573;51.334;3.244;2024-01-07T12:53:28;3.30;99.90
22813;DHT22;11573;51.334;3.244;2024-01-07T12:55:55;3.20;99.90
22813;DHT22;11573;51.334;3.244;2024-01-07T12:58:22;3.20;99.90
22813;DHT22;11573;51.334;3.244;2024-01-07T13:00:49;3.20;99.90
22813;DHT22;11573;51.334;3.244;2024-01-07T13:03:16;3.20;99.90
22813;DHT22;11573;51.334;3.244;2024-01-07T13:05:44;3.20;99.90
22813;DHT22;11573;51.334;3.244;2024-01-07T13:08:13;3.20;99.90
22813;DHT22;11573;51.334;3.244;2024-01-07T13:10:42;3.20;99.90
22813;DHT22;11573;51.334;3.244;2024-01-07T13:13:13;3.10;99.90
22813;DHT22;11573;51.334;3.244;2024-01-07T13:15:45;3.10;99.90
22813;DHT22;11573;51.334;3.244;2024-01-07T13:18:12;3.00;99.90
22813;DHT22;11573;51.334;3.244;2024-01-07T13:20:40;3.10;99.90
22813;DHT22;11573;51.334;3.244;2024-01-07T13:23:10;3.10;99.90
22813;DHT22;11573;51.334;3.244;2024-01-07T13:25:37;3.00;99.90
22813;DHT22;11573;51.334;3.244;2024-01-07T13:28:07;3.00;99.90
22813;DHT22;11573;51.334;3.244;2024-01-07T13:30:49;3.00;99.90
22813;DHT22;11573;51.334;3.244;2024-01-07T13:33:17;3.10;99.90
22813;DHT22;11573;51.334;3.244;2024-01-07T13:35:49;3.00;99.90
22813;DHT22;11573;51.334;3.244;2024-01-07T13:38:19;3.00;99.90
22813;DHT22;11573;51.334;3.244;2024-01-07T13:40:47;3.00;99.90
22813;DHT22;11573;51.334;3.244;2024-01-07T13:43:15;3.00;99.90
22813;DHT22;11573;51.334;3.244;2024-01-07T13:45:42;2.90;99.90
22813;DHT22;11573;51.334;3.244;2024-01-07T13:48:09;2.90;99.90
22813;DHT22;11573;51.334;3.244;2024-01-07T13:50:37;2.90;99.90
22813;DHT22;11573;51.334;3.244;2024-01-07T13:53:04;2.90;99.90
22813;DHT22;11573;51.334;3.244;2024-01-07T13:55:31;2.80;99.90
22813;DHT22;11573;51.334;3.244;2024-01-07T13:57:58;2.70;99.90
22813;DHT22;11573;51.334;3.244;2024-01-07T14:00:26;2.70;99.90
22813;DHT22;11573;51.334;3.244;2024-01-07T14:02:53;2.70;99.90
22813;DHT22;11573;51.334;3.244;2024-01-07T14:05:20;2.70;99.90
22813;DHT22;11573;51.334;3.244;2024-01-07T14:07:47;2.70;99.90
22813;DHT22;11573;51.334;3.244;2024-01-07T14:10:15;2.70;99.90
22813;DHT22;11573;51.334;3.244;2024-01-07T14:12:45;2.70;99.90
22813;DHT22;11573;51.334;3.244;2024-01-07T14:15:12;2.70;99.90
22813;DHT22;11573;51.334;3.244;2024-01-07T14:17:39;2.70;99.90
22813;DHT22;11573;51.334;3.244;2024-01-07T14:20:07;2.70;99.90
22813;DHT22;11573;51.334;3.244;2024-01-07T14:22:35;2.70;99.90
22813;DHT22;11573;51.334;3.244;2024-01-07T14:25:02;2.70;99.90
22813;DHT22;11573;51.334;3.244;2024-01-07T14:27:30;2.70;99.90
22813;DHT22;11573;51.334;3.244;2024-01-07T14:29:57;2.60;99.90
22813;DHT22;11573;51.334;3.244;2024-01-07T14:32:24;2.70;99.90
22813;DHT22;11573;51.334;3.244;2024-01-07T14:34:51;2.70;99.90
22813;DHT22;11573;51.334;3.244;2024-01-07T14:37:18;2.80;99.90
22813;DHT22;11573;51.334;3.244;2024-01-07T14:39:47;2.80;99.90
22813;DHT22;11573;51.334;3.244;2024-01-07T14:42:14;2.80;99.90
22813;DHT22;11573;51.334;3.244;2024-01-07T14:44:41;2.70;99.90
22813;DHT22;11573;51.334;3.244;2024-01-07T14:47:17;2.60;99.90
22813;DHT22;11573;51.334;3.244;2024-01-07T14:49:47;2.60;99.90
22813;DHT22;11573;51.334;3.244;2024-01-07T14:52:15;2.60;99.90
22813;DHT22;11573;51.334;3.244;2024-01-07T14:54:42;2.70;99.90
22813;DHT22;11573;51.334;3.244;2024-01-07T14:57:10;2.60;99.90
22813;DHT22;11573;51.334;3.244;2024-01-07T14:59:39;2.70;99.90
22813;DHT22;11573;51.334;3.244;2024-01-07T15:02:06;2.70;99.90
22813;DHT22;11573;51.334;3.244;2024-01-07T15:04:35;2.70;99.90
22813;DHT22;11573;51.334;3.244;2024-01-07T15:07:02;2.60;99.90
22813;DHT22;11573;51.334;3.244;2024-01-07T15:09:29;2.50;99.90
22813;DHT22;11573;51.334;3.244;2024-01-07T15:11:57;2.40;99.90
22813;DHT22;11573;51.334;3.244;2024-01-07T15:14:25;2.40;99.90
22813;DHT22;11573;51.334;3.244;2024-01-07T15:16:53;2.50;99.90
22813;DHT22;11573;51.334;3.244;2024-01-07T15:19:22;2.40;99.90
22813;DHT22;11573;51.334;3.244;2024-01-07T15:21:50;2.40;99.90
22813;DHT22;11573;51.334;3.244;2024-01-07T15:24:17;2.50;99.90
22813;DHT22;11573;51.334;3.244;2024-01-07T15:26:44;2.50;99.90
22813;DHT22;11573;51.334;3.244;2024-01-07T15:29:11;2.50;99.90
22813;DHT22;11573;51.334;3.244;2024-01-07T15:31:38;2.60;99.90
22813;DHT22;11573;51.334;3.244;2024-01-07T15:34:05;2.50;99.90
22813;DHT22;11573;51.334;3.244;2024-01-07T15:36:33;2.40;99.90
22813;DHT22;11573;51.334;3.244;2024-01-07T15:39:01;2.40;99.90
22813;DHT22;11573;51.334;3.244;2024-01-07T15:41:28;2.40;99.90
22813;DHT22;11573;51.334;3.244;2024-01-07T15:43:56;2.40;99.90
22813;DHT22;11573;51.334;3.244;2024-01-07T15:46:23;2.40;99.90
22813;DHT22;11573;51.334;3.244;2024-01-07T15:48:50;2.40;99.90
22813;DHT22;11573;51.334;3.244;2024-01-07T15:51:17;2.30;99.90
22813;DHT22;11573;51.334;3.244;2024-01-07T15:53:44;2.40;99.90
22813;DHT22;11573;51.334;3.244;2024-01-07T15:56:11;2.40;99.90